createdAt,value
2022-11-05T00:02:33.303Z,79.78
2022-11-05T00:05:20.462Z,79.74
2022-11-05T00:08:15.147Z,80.43
2022-11-05T00:10:44.465Z,79.96
2022-11-05T00:13:32.586Z,80.05
2022-11-05T00:16:19.247Z,80.15
2022-11-05T00:19:06.374Z,79.75
2022-11-05T00:21:53.456Z,80.23
2022-11-05T00:24:42.096Z,80.15
2022-11-05T00:27:11.441Z,80.28
2022-11-05T00:29:40.729Z,80.45
2022-11-05T00:32:09.707Z,80.79
2022-11-05T00:34:39.025Z,80.65
2022-11-05T00:37:08.022Z,80.57
2022-11-05T00:39:38.715Z,81.17
2022-11-05T00:42:25.270Z,80.84
2022-11-05T00:45:03.270Z,81.07
2022-11-05T00:47:51.184Z,80.61
2022-11-05T00:50:23.189Z,81.41
2022-11-05T00:52:59.595Z,81.17
2022-11-05T00:55:34.236Z,81.36
2022-11-05T00:58:05.024Z,81.49
2022-11-05T01:00:36.062Z,81.64
2022-11-05T01:03:07.656Z,81.33
2022-11-05T01:05:40.434Z,81.74
2022-11-05T01:08:09.870Z,81.90
2022-11-05T01:10:43.998Z,82.00
2022-11-05T01:13:14.292Z,81.72
2022-11-05T01:15:44.011Z,82.13
2022-11-05T01:18:13.952Z,82.02
2022-11-05T01:20:42.974Z,82.13
2022-11-05T01:23:13.699Z,82.24
2022-11-05T01:25:44.760Z,82.30
2022-11-05T01:28:13.874Z,82.06
2022-11-05T01:30:43.202Z,82.12
2022-11-05T01:33:12.451Z,82.34
2022-11-05T01:35:41.916Z,82.29
2022-11-05T01:38:10.903Z,82.35
2022-11-05T01:40:45.922Z,82.40
2022-11-05T01:43:19.419Z,82.52
2022-11-05T01:45:51.199Z,82.80
2022-11-05T01:48:22.864Z,82.54
2022-11-05T01:50:57.945Z,82.77
2022-11-05T01:53:31.661Z,82.42
2022-11-05T01:56:05.462Z,82.44
2022-11-05T01:58:39.233Z,82.41
2022-11-05T02:01:08.622Z,82.63
2022-11-05T02:03:38.002Z,82.93
2022-11-05T02:06:09.468Z,82.51
2022-11-05T02:08:52.848Z,82.53
2022-11-05T02:11:23.847Z,82.70
2022-11-05T02:13:53.008Z,82.69
2022-11-05T02:16:37.676Z,83.11
2022-11-05T02:19:30.970Z,82.90
2022-11-05T02:22:28.314Z,83.12
2022-11-05T02:25:27.870Z,82.97
2022-11-05T02:28:18.265Z,82.93
2022-11-05T02:30:55.200Z,83.29
2022-11-05T02:33:40.727Z,83.45
2022-11-05T02:36:29.766Z,83.21
2022-11-05T02:39:11.227Z,83.47
2022-11-05T02:41:50.188Z,83.15
2022-11-05T02:44:28.965Z,83.43
2022-11-05T02:47:08.468Z,83.39
2022-11-05T02:49:48.301Z,83.39
2022-11-05T02:52:22.369Z,83.42
2022-11-05T02:54:58.505Z,83.40
2022-11-05T02:57:31.130Z,83.86
2022-11-05T03:00:05.772Z,83.66
2022-11-05T03:02:36.329Z,83.71
2022-11-05T03:05:06.912Z,83.61
2022-11-05T03:07:43.724Z,83.71
2022-11-05T03:10:40.879Z,83.36
2022-11-05T03:13:19.075Z,83.36
2022-11-05T03:15:56.647Z,83.62
2022-11-05T03:18:35.851Z,83.65
2022-11-05T03:21:10.686Z,83.70
2022-11-05T03:23:51.746Z,83.66
2022-11-05T03:26:26.820Z,83.73
2022-11-05T03:29:00.452Z,83.64
2022-11-05T03:31:32.119Z,83.83
2022-11-05T03:34:05.493Z,83.68
2022-11-05T03:36:41.151Z,83.76
2022-11-05T03:39:14.988Z,83.46
2022-11-05T03:41:49.591Z,83.84
2022-11-05T03:44:23.406Z,83.98
2022-11-05T03:46:54.668Z,84.07
2022-11-05T03:49:31.727Z,83.95
2022-11-05T03:52:06.174Z,84.15
2022-11-05T03:54:35.947Z,84.11
2022-11-05T03:57:10.030Z,83.94
2022-11-05T03:59:43.224Z,84.16
2022-11-05T04:02:13.569Z,84.04
2022-11-05T04:04:44.103Z,83.96
2022-11-05T04:07:31.620Z,84.15
2022-11-05T04:10:18.090Z,84.24
2022-11-05T04:13:04.906Z,84.04
2022-11-05T04:15:54.270Z,84.12
2022-11-05T04:18:22.597Z,84.01
2022-11-05T04:21:10.511Z,83.85
2022-11-05T04:23:57.300Z,83.77
2022-11-05T04:26:26.337Z,84.09
2022-11-05T04:29:12.415Z,84.08
2022-11-05T04:31:41.376Z,84.41
2022-11-05T04:34:10.674Z,83.93
2022-11-05T04:36:41.042Z,84.34
2022-11-05T04:39:10.632Z,84.30
2022-11-05T04:41:40.036Z,84.05
2022-11-05T04:44:09.354Z,84.32
2022-11-05T04:46:38.301Z,84.26
2022-11-05T04:49:07.581Z,84.35
2022-11-05T04:51:36.605Z,84.51
2022-11-05T04:54:07.389Z,84.60
2022-11-05T04:56:36.521Z,84.63
2022-11-05T04:59:05.832Z,84.77
2022-11-05T05:01:35.023Z,84.62
2022-11-05T05:04:04.711Z,85.01
2022-11-05T05:06:35.300Z,84.87
2022-11-05T05:09:06.011Z,85.22
2022-11-05T05:11:34.975Z,85.14
2022-11-05T05:14:04.284Z,84.92
2022-11-05T05:16:33.302Z,85.02
2022-11-05T05:19:02.559Z,84.96
2022-11-05T05:21:39.576Z,85.01
2022-11-05T05:24:12.912Z,85.21
2022-11-05T05:26:44.288Z,85.39
2022-11-05T05:29:14.263Z,85.05
2022-11-05T05:31:43.918Z,85.24
2022-11-05T05:34:15.002Z,85.17
2022-11-05T05:36:44.063Z,85.38
2022-11-05T05:39:15.324Z,85.39
2022-11-05T05:41:44.318Z,85.51
2022-11-05T05:44:13.597Z,85.65
2022-11-05T05:46:42.601Z,85.43
2022-11-05T05:49:13.780Z,85.38
2022-11-05T05:51:42.843Z,85.74
2022-11-05T05:54:14.257Z,85.88
2022-11-05T05:56:45.225Z,85.77
2022-11-05T05:59:14.598Z,85.75
2022-11-05T06:01:44.069Z,86.05
2022-11-05T06:04:13.575Z,85.85
2022-11-05T06:06:42.585Z,85.84
2022-11-05T06:09:13.435Z,85.86
2022-11-05T06:11:42.591Z,85.88
2022-11-05T06:14:14.057Z,85.87
2022-11-05T06:16:43.044Z,86.03
2022-11-05T06:19:12.323Z,85.91
2022-11-05T06:21:41.257Z,85.78
2022-11-05T06:24:11.296Z,85.94
2022-11-05T06:26:43.222Z,85.91
2022-11-05T06:29:12.595Z,85.78
2022-11-05T06:31:41.594Z,85.78
2022-11-05T06:34:11.136Z,86.21
2022-11-05T06:36:40.350Z,86.12
2022-11-05T06:39:12.277Z,85.83
2022-11-05T06:42:17.162Z,85.88
2022-11-05T06:44:31.842Z,85.94
2022-11-05T06:47:00.950Z,86.03
2022-11-05T06:49:30.244Z,86.17
2022-11-05T06:51:59.813Z,86.43
2022-11-05T06:54:29.039Z,86.21
2022-11-05T06:56:59.432Z,86.17
2022-11-05T06:59:28.785Z,86.11
2022-11-05T07:01:57.914Z,86.07
2022-11-05T07:04:27.267Z,86.30
2022-11-05T07:06:56.274Z,86.35
2022-11-05T07:09:25.838Z,86.51
2022-11-05T07:11:54.872Z,86.15
2022-11-05T07:14:25.637Z,85.96
2022-11-05T07:16:54.604Z,85.95
2022-11-05T07:19:23.883Z,86.32
2022-11-05T07:21:52.802Z,86.05
2022-11-05T07:24:22.112Z,85.98
2022-11-05T07:26:51.066Z,86.12
2022-11-05T07:29:20.395Z,86.25
2022-11-05T07:31:50.957Z,86.29
2022-11-05T07:34:20.639Z,86.51
2022-11-05T07:36:49.634Z,86.48
2022-11-05T07:39:18.926Z,86.34
2022-11-05T07:41:48.081Z,86.41
2022-11-05T07:44:17.670Z,86.38
2022-11-05T07:46:46.698Z,86.33
2022-11-05T07:49:17.515Z,86.51
2022-11-05T07:51:46.692Z,86.59
2022-11-05T07:54:16.050Z,86.57
2022-11-05T07:56:47.493Z,86.53
2022-11-05T07:59:16.750Z,86.58
2022-11-05T08:01:45.940Z,86.59
2022-11-05T08:04:16.753Z,86.61
2022-11-05T08:06:46.478Z,86.58
2022-11-05T08:09:15.885Z,86.66
2022-11-05T08:11:44.833Z,86.53
2022-11-05T08:14:14.423Z,86.57
2022-11-05T08:16:43.803Z,86.34
2022-11-05T08:19:13.210Z,86.54
2022-11-05T08:21:43.572Z,86.35
2022-11-05T08:24:13.018Z,86.58
2022-11-05T08:26:41.964Z,86.88
2022-11-05T08:29:11.275Z,86.92
2022-11-05T08:31:40.245Z,86.46
2022-11-05T08:34:09.467Z,86.40
2022-11-05T08:36:41.974Z,86.48
2022-11-05T08:39:16.787Z,86.51
2022-11-05T08:41:47.124Z,86.25
2022-11-05T08:44:16.259Z,86.25
2022-11-05T08:46:45.226Z,86.45
2022-11-05T08:49:14.480Z,86.64
2022-11-05T08:51:44.816Z,86.29
2022-11-05T08:54:15.479Z,86.29
2022-11-05T08:56:44.568Z,86.41
2022-11-05T08:59:13.829Z,86.39
2022-11-05T09:01:43.314Z,86.43
2022-11-05T09:04:12.918Z,86.44
2022-11-05T09:06:41.906Z,86.49
2022-11-05T09:09:16.752Z,86.44
2022-11-05T09:12:10.492Z,86.51
2022-11-05T09:14:36.517Z,86.44
2022-11-05T09:17:05.632Z,86.42
2022-11-05T09:19:39.596Z,86.42
2022-11-05T09:22:09.072Z,86.64
2022-11-05T09:24:39.809Z,86.57
2022-11-05T09:27:11.884Z,86.70
2022-11-05T09:29:41.669Z,86.56
2022-11-05T09:32:12.092Z,86.75
2022-11-05T09:34:44.330Z,86.78
2022-11-05T09:37:13.406Z,86.72
2022-11-05T09:39:44.116Z,86.74
2022-11-05T09:42:18.781Z,86.70
2022-11-05T09:44:53.093Z,86.62
2022-11-05T09:47:26.844Z,86.82
2022-11-05T09:49:58.146Z,86.79
2022-11-05T09:52:31.086Z,87.05
2022-11-05T09:55:03.664Z,86.75
2022-11-05T09:57:37.880Z,87.01
2022-11-05T10:00:09.619Z,86.71
2022-11-05T10:02:47.201Z,87.47
2022-11-05T10:05:16.960Z,87.05
2022-11-05T10:07:52.421Z,87.51
2022-11-05T10:10:41.104Z,87.50
2022-11-05T10:13:22.405Z,87.39
2022-11-05T10:16:01.139Z,87.49
2022-11-05T10:18:34.340Z,87.69
2022-11-05T10:21:03.932Z,87.44
2022-11-05T10:23:33.392Z,88.01
2022-11-05T10:26:07.021Z,87.78
2022-11-05T10:28:37.099Z,87.40
2022-11-05T10:31:08.098Z,87.66
2022-11-05T10:33:41.182Z,87.71
2022-11-05T10:36:13.498Z,87.95
2022-11-05T10:38:42.485Z,87.69
2022-11-05T10:41:35.646Z,87.44
2022-11-05T10:44:18.915Z,87.50
2022-11-05T10:46:54.954Z,87.26
2022-11-05T10:49:42.959Z,87.20
2022-11-05T10:52:33.287Z,87.55
2022-11-05T10:55:08.362Z,87.60
2022-11-05T10:57:40.795Z,87.31
2022-11-05T11:00:28.379Z,87.43
2022-11-05T11:03:05.374Z,87.28
2022-11-05T11:05:40.005Z,87.53
2022-11-05T11:08:25.141Z,87.07
2022-11-05T11:10:57.525Z,87.05
2022-11-05T11:13:30.647Z,87.01
2022-11-05T11:16:16.243Z,86.59
2022-11-05T11:18:45.898Z,87.03
2022-11-05T11:21:17.091Z,86.88
2022-11-05T11:23:55.883Z,86.74
2022-11-05T11:26:26.704Z,86.57
2022-11-05T11:29:00.480Z,86.54
2022-11-05T11:31:31.870Z,86.14
2022-11-05T11:34:04.707Z,86.32
2022-11-05T11:36:37.001Z,86.05
2022-11-05T11:39:08.202Z,85.86
2022-11-05T11:41:41.939Z,85.67
2022-11-05T11:44:17.451Z,85.68
2022-11-05T11:46:50.513Z,85.45
2022-11-05T11:49:34.860Z,85.21
2022-11-05T11:52:06.297Z,85.43
2022-11-05T11:54:36.182Z,85.40
2022-11-05T11:57:20.808Z,85.14
2022-11-05T12:00:08.423Z,85.02
2022-11-05T12:03:04.009Z,85.00
2022-11-05T12:05:48.605Z,85.02
2022-11-05T12:08:34.213Z,84.75
2022-11-05T12:11:08.936Z,84.50
2022-11-05T12:14:10.564Z,84.77
2022-11-05T12:17:03.402Z,84.48
2022-11-05T12:20:04.730Z,84.36
2022-11-05T12:22:57.518Z,84.38
2022-11-05T12:25:30.085Z,84.34
2022-11-05T12:28:36.144Z,84.18
2022-11-05T12:31:27.688Z,84.68
2022-11-05T12:34:13.292Z,84.47
2022-11-05T12:36:57.474Z,84.33
2022-11-05T12:39:44.082Z,84.63
2022-11-05T12:42:26.755Z,84.51
2022-11-05T12:45:03.462Z,84.68
2022-11-05T12:47:58.111Z,84.10
2022-11-05T12:50:37.455Z,84.17
2022-11-05T12:53:24.713Z,84.01
2022-11-05T12:55:55.728Z,84.14
2022-11-05T12:58:30.187Z,84.60
2022-11-05T13:01:04.130Z,84.40
2022-11-05T13:03:41.897Z,84.55
2022-11-05T13:06:16.739Z,84.30
2022-11-05T13:08:51.412Z,84.33
2022-11-05T13:11:25.347Z,84.69
2022-11-05T13:14:05.096Z,84.63
2022-11-05T13:16:38.922Z,84.49
2022-11-05T13:19:17.898Z,84.75
2022-11-05T13:21:53.223Z,84.79
2022-11-05T13:24:26.259Z,84.50
2022-11-05T13:27:01.097Z,84.69
2022-11-05T13:29:36.390Z,84.54
2022-11-05T13:32:15.196Z,84.66
2022-11-05T13:34:44.556Z,84.48
2022-11-05T13:37:35.225Z,84.40
2022-11-05T13:40:10.799Z,84.52
2022-11-05T13:43:02.391Z,84.21
2022-11-05T13:46:06.038Z,84.58
2022-11-05T13:48:58.019Z,84.46
2022-11-05T13:51:48.243Z,84.26
2022-11-05T13:54:47.134Z,84.57
2022-11-05T13:57:45.241Z,84.39
2022-11-05T14:00:19.858Z,84.25
2022-11-05T14:02:53.750Z,84.45
2022-11-05T14:05:30.973Z,83.88
2022-11-05T14:08:02.085Z,84.07
2022-11-05T14:10:38.086Z,84.29
2022-11-05T14:13:23.229Z,84.12
2022-11-05T14:16:05.811Z,84.10
2022-11-05T14:18:41.467Z,84.25
2022-11-05T14:21:33.382Z,84.14
2022-11-05T14:24:25.745Z,84.23
2022-11-05T14:27:32.079Z,83.74
2022-11-05T14:30:22.632Z,83.81
2022-11-05T14:33:03.738Z,83.90
2022-11-05T14:35:39.195Z,83.93
2022-11-05T14:38:21.254Z,84.12
2022-11-05T14:40:59.054Z,84.34
2022-11-05T14:43:32.719Z,84.06
2022-11-05T14:46:03.517Z,83.81
2022-11-05T14:48:41.226Z,83.90
2022-11-05T14:51:29.699Z,84.10
2022-11-05T14:54:04.911Z,84.00
2022-11-05T14:56:44.693Z,83.98
2022-11-05T14:59:34.519Z,84.08
2022-11-05T15:02:10.384Z,84.03
2022-11-05T15:04:45.436Z,84.45
2022-11-05T15:07:33.473Z,84.29
2022-11-05T15:10:10.666Z,84.37
2022-11-05T15:12:44.718Z,84.34
2022-11-05T15:15:23.659Z,84.04
2022-11-05T15:18:02.175Z,84.15
2022-11-05T15:20:40.201Z,83.85
2022-11-05T15:23:19.132Z,83.52
2022-11-05T15:25:56.142Z,84.29
2022-11-05T15:28:33.396Z,83.91
2022-11-05T15:31:05.890Z,83.95
2022-11-05T15:33:35.405Z,83.90
2022-11-05T15:36:28.898Z,83.87
2022-11-05T15:39:27.998Z,83.79
2022-11-05T15:41:49.087Z,83.87
2022-11-05T15:44:33.017Z,84.05
2022-11-05T15:47:23.611Z,83.63
2022-11-05T15:49:54.087Z,83.91
2022-11-05T15:52:26.599Z,83.93
2022-11-05T15:55:23.645Z,83.68
2022-11-05T15:58:01.101Z,83.61
2022-11-05T16:00:31.600Z,83.68
2022-11-05T16:03:06.009Z,83.88
2022-11-05T16:05:37.298Z,83.97
2022-11-05T16:08:15.721Z,83.74
2022-11-05T16:10:50.190Z,83.97
2022-11-05T16:13:24.409Z,83.79
2022-11-05T16:15:57.779Z,83.68
2022-11-05T16:18:33.303Z,83.47
2022-11-05T16:21:05.077Z,83.43
2022-11-05T16:23:45.785Z,83.18
2022-11-05T16:29:33.439Z,83.30
2022-11-05T16:32:05.156Z,83.50
2022-11-05T16:34:38.728Z,83.46
2022-11-05T16:37:09.129Z,83.17
2022-11-05T16:39:40.292Z,83.31
2022-11-05T16:42:37.365Z,83.23
2022-11-05T16:45:07.775Z,83.51
2022-11-05T16:47:37.081Z,83.62
2022-11-05T16:50:20.396Z,83.24
2022-11-05T16:52:50.518Z,83.28
2022-11-05T16:55:21.785Z,83.37
2022-11-05T16:57:53.566Z,83.28
2022-11-05T17:00:24.737Z,83.25
2022-11-05T17:02:55.585Z,83.40
2022-11-05T17:05:27.036Z,83.07
2022-11-05T17:07:56.694Z,83.00
2022-11-05T17:10:27.877Z,83.44
2022-11-05T17:12:56.934Z,83.53
2022-11-05T17:15:29.207Z,83.06
2022-11-05T17:17:58.662Z,83.29
2022-11-05T17:20:36.782Z,82.69
2022-11-05T17:23:09.613Z,83.04
2022-11-05T17:25:41.322Z,82.91
2022-11-05T17:28:11.376Z,83.16
2022-11-05T17:30:42.139Z,83.16
2022-11-05T17:33:12.662Z,83.38
2022-11-05T17:35:43.077Z,83.18
2022-11-05T17:38:12.817Z,83.06
2022-11-05T17:40:43.785Z,82.92
2022-11-05T17:43:13.066Z,83.00
2022-11-05T17:45:43.880Z,82.96
2022-11-05T17:48:13.262Z,82.69
2022-11-05T17:50:44.028Z,82.96
2022-11-05T17:53:14.012Z,83.22
2022-11-05T17:55:46.081Z,83.07
2022-11-05T17:58:15.342Z,82.82
2022-11-05T18:00:49.518Z,82.99
2022-11-05T18:03:18.654Z,82.91
2022-11-05T18:05:48.921Z,83.09
2022-11-05T18:08:18.150Z,83.05
2022-11-05T18:10:50.509Z,83.02
2022-11-05T18:13:19.834Z,83.08
2022-11-05T18:15:58.973Z,83.06
2022-11-05T18:18:28.036Z,82.96
2022-11-05T18:20:59.030Z,83.19
2022-11-05T18:23:28.082Z,83.13
2022-11-05T18:25:58.953Z,83.13
2022-11-05T18:28:29.969Z,83.18
2022-11-05T18:30:59.786Z,83.14
2022-11-05T18:33:29.191Z,83.06
2022-11-05T18:35:58.451Z,83.44
2022-11-05T18:38:27.435Z,82.86
2022-11-05T18:40:58.476Z,83.26
2022-11-05T18:43:27.590Z,82.95
2022-11-05T18:45:58.499Z,83.04
2022-11-05T18:48:27.506Z,83.02
2022-11-05T18:51:01.976Z,83.00
2022-11-05T18:53:31.318Z,83.11
2022-11-05T18:56:07.343Z,83.22
2022-11-05T18:58:37.294Z,82.79
2022-11-05T19:01:13.455Z,82.82
2022-11-05T19:03:42.625Z,83.04
2022-11-05T19:06:12.214Z,82.74
2022-11-05T19:08:41.319Z,82.75
2022-11-05T19:11:15.556Z,82.92
2022-11-05T19:13:49.019Z,83.06
2022-11-05T19:16:21.666Z,82.84
2022-11-05T19:18:50.801Z,82.66
2022-11-05T19:21:22.636Z,82.65
2022-11-05T19:23:52.742Z,82.88
2022-11-05T19:26:29.084Z,82.97
2022-11-05T19:29:00.096Z,83.10
2022-11-05T19:31:29.928Z,82.91
2022-11-05T19:33:59.381Z,83.22
2022-11-05T19:36:28.716Z,83.07
2022-11-05T19:38:59.591Z,82.82
2022-11-05T19:41:30.391Z,83.30
2022-11-05T19:44:01.554Z,83.04
2022-11-05T19:46:32.295Z,83.76
2022-11-05T19:49:02.089Z,84.08
2022-11-05T19:51:32.859Z,84.22
2022-11-05T19:54:03.312Z,83.96
2022-11-05T19:56:36.677Z,84.38
2022-11-05T19:59:07.073Z,84.21
2022-11-05T20:01:37.490Z,84.06
2022-11-05T20:04:06.642Z,84.29
2022-11-05T20:06:40.099Z,84.22
2022-11-05T20:09:27.507Z,84.06
2022-11-05T20:11:59.647Z,84.07
2022-11-05T20:14:29.722Z,83.85
2022-11-05T20:16:59.072Z,83.89
2022-11-05T20:19:28.047Z,84.09
2022-11-05T20:22:00.008Z,84.15
2022-11-05T20:24:29.416Z,84.02
2022-11-05T20:27:00.106Z,83.99
2022-11-05T20:29:35.035Z,83.91
2022-11-05T20:32:05.701Z,83.98
2022-11-05T20:34:35.328Z,83.98
2022-11-05T20:37:04.731Z,83.49
2022-11-05T20:39:33.805Z,83.47
2022-11-05T20:42:04.599Z,83.73
2022-11-05T20:44:33.959Z,83.75
2022-11-05T20:47:03.892Z,83.68
2022-11-05T20:49:32.837Z,83.90
2022-11-05T20:52:02.156Z,83.61
2022-11-05T20:54:31.226Z,83.83
2022-11-05T20:57:00.692Z,83.37
2022-11-05T20:59:31.508Z,83.55
2022-11-05T21:02:01.182Z,83.95
2022-11-05T21:04:30.424Z,84.49
2022-11-05T21:06:59.678Z,84.64
2022-11-05T21:09:28.954Z,84.63
2022-11-05T21:12:13.546Z,84.87
2022-11-05T21:14:44.765Z,85.00
2022-11-05T21:17:15.857Z,84.65
2022-11-05T21:19:45.714Z,84.46
2022-11-05T21:22:16.002Z,84.83
2022-11-05T21:24:45.118Z,85.00
2022-11-05T21:27:14.507Z,84.77
2022-11-05T21:29:44.940Z,84.85
2022-11-05T21:32:14.219Z,84.64
2022-11-05T21:34:43.190Z,84.79
2022-11-05T21:37:12.887Z,84.48
2022-11-05T21:39:41.892Z,84.73
2022-11-05T21:42:11.183Z,84.82
2022-11-05T21:44:40.213Z,84.20
2022-11-05T21:47:10.887Z,84.68
2022-11-05T21:49:42.185Z,84.62
2022-11-05T21:52:30.044Z,84.86
2022-11-05T21:55:16.426Z,84.68
2022-11-05T21:58:03.341Z,84.79
2022-11-05T22:00:32.338Z,84.53
2022-11-05T22:03:03.101Z,84.88
2022-11-05T22:05:32.457Z,85.23
2022-11-05T22:08:01.755Z,84.50
2022-11-05T22:10:30.846Z,84.18
2022-11-05T22:13:00.233Z,84.36
2022-11-05T22:15:29.434Z,84.55
2022-11-05T22:17:58.750Z,83.93
2022-11-05T22:20:29.241Z,84.01
2022-11-05T22:22:58.450Z,84.13
2022-11-05T22:25:27.487Z,83.92
2022-11-05T22:27:58.233Z,83.98
2022-11-05T22:30:27.212Z,83.46
2022-11-05T22:32:56.503Z,83.63
2022-11-05T22:35:25.483Z,84.24
2022-11-05T22:37:56.367Z,84.32
2022-11-05T22:40:25.538Z,83.71
2022-11-05T22:42:54.810Z,83.64
2022-11-05T22:45:23.830Z,83.69
2022-11-05T22:47:53.116Z,83.57
2022-11-05T22:50:22.119Z,83.58
2022-11-05T22:52:51.382Z,84.02
2022-11-05T22:55:21.852Z,83.86
2022-11-05T22:57:51.135Z,84.10
2022-11-05T23:00:20.232Z,83.95
2022-11-05T23:02:49.630Z,83.76
